createdAt,value
2019-03-01T00:07:45.798Z,993.12
2019-03-01T00:17:45.748Z,992.89
2019-03-01T00:27:45.838Z,992.90
2019-03-01T00:37:45.750Z,992.85
2019-03-01T00:47:45.929Z,992.84
2019-03-01T00:57:45.812Z,992.70
2019-03-01T01:07:45.715Z,992.63
2019-03-01T01:17:45.847Z,992.50
2019-03-01T01:27:45.758Z,992.34
2019-03-01T01:37:45.779Z,992.21
2019-03-01T01:47:45.784Z,992.02
2019-03-01T01:57:45.971Z,991.86
2019-03-01T02:07:45.786Z,991.89
2019-03-01T02:17:45.735Z,991.74
2019-03-01T02:37:51.376Z,991.61
2019-03-01T02:47:51.067Z,991.51
2019-03-01T02:57:51.027Z,991.47
2019-03-01T03:07:51.031Z,991.40
2019-03-01T03:17:52.087Z,991.44
2019-03-01T03:27:51.013Z,991.34
2019-03-01T03:37:58.364Z,991.31
2019-03-01T03:47:52.495Z,991.32
2019-03-01T03:57:52.095Z,991.36
2019-03-01T04:07:51.171Z,991.39
2019-03-01T04:17:51.116Z,991.39
2019-03-01T04:27:53.231Z,991.49
2019-03-01T04:37:51.028Z,991.43
2019-03-01T04:47:51.070Z,991.36
2019-03-01T04:57:51.131Z,991.42
2019-03-01T05:07:51.111Z,991.45
2019-03-01T05:17:51.051Z,991.56
2019-03-01T05:27:51.092Z,991.63
2019-03-01T05:37:51.068Z,991.66
2019-03-01T05:47:51.020Z,991.78
2019-03-01T05:57:51.109Z,991.84
2019-03-01T06:07:51.100Z,991.97
2019-03-01T06:17:51.352Z,991.97
2019-03-01T06:27:51.271Z,992.09
2019-03-01T06:37:51.113Z,992.22
2019-03-01T06:47:51.029Z,992.33
2019-03-01T06:57:51.086Z,992.46
2019-03-01T07:07:51.212Z,992.60
2019-03-01T07:17:51.194Z,992.64
2019-03-01T07:27:51.009Z,992.84
2019-03-01T07:37:51.105Z,992.89
2019-03-01T07:47:52.511Z,992.95
2019-03-01T07:57:51.059Z,993.19
2019-03-01T08:07:56.125Z,993.40
2019-03-01T08:17:51.073Z,993.58
2019-03-01T08:27:51.193Z,993.77
2019-03-01T08:37:53.513Z,993.89
2019-03-01T08:47:51.136Z,993.93
2019-03-01T08:57:51.411Z,994.10
2019-03-01T09:07:51.013Z,994.25
2019-03-01T09:17:54.801Z,994.31
2019-03-01T09:27:50.997Z,994.48
2019-03-01T09:37:51.011Z,994.66
2019-03-01T09:58:00.854Z,994.98
2019-03-01T10:07:59.756Z,995.05
2019-03-01T10:17:59.913Z,995.15
2019-03-01T10:27:59.783Z,995.31
2019-03-01T10:37:59.658Z,995.38
2019-03-01T10:47:59.798Z,995.41
2019-03-01T10:57:59.694Z,995.49
2019-03-01T11:07:59.709Z,995.60
2019-03-01T11:18:01.306Z,995.65
2019-03-01T11:27:59.945Z,995.66
2019-03-01T11:58:24.634Z,995.89
2019-03-01T12:08:28.052Z,995.85
2019-03-01T12:18:24.614Z,995.91
2019-03-01T12:28:24.678Z,995.81
2019-03-01T12:38:24.630Z,996.00
2019-03-01T12:48:24.823Z,996.12
2019-03-01T12:58:24.611Z,996.22
2019-03-01T13:08:24.778Z,996.41
2019-03-01T13:18:24.569Z,996.76
2019-03-01T13:28:24.740Z,996.97
2019-03-01T13:38:24.747Z,997.13
2019-03-01T13:48:26.549Z,997.15
2019-03-01T13:58:27.715Z,997.18
2019-03-01T14:08:26.843Z,997.24
2019-03-01T14:18:24.662Z,997.28
2019-03-01T14:28:24.565Z,997.38
2019-03-01T14:38:26.789Z,997.50
2019-03-01T14:48:24.592Z,997.54
2019-03-01T14:58:25.658Z,997.49
2019-03-01T15:08:24.640Z,997.56
2019-03-01T15:18:28.987Z,997.62
2019-03-01T15:28:25.943Z,997.73
2019-03-01T15:38:27.570Z,997.78
2019-03-01T15:58:33.203Z,997.96
2019-03-01T16:08:31.008Z,998.03
2019-03-01T16:18:35.224Z,998.14
2019-03-01T16:28:31.466Z,998.24
2019-03-01T16:38:40.428Z,998.20
2019-03-01T16:48:31.197Z,998.30
2019-03-01T16:58:31.003Z,998.42
2019-03-01T17:08:31.848Z,998.33
2019-03-01T17:18:30.972Z,998.39
2019-03-01T17:28:31.886Z,998.53
2019-03-01T17:38:32.291Z,998.48
2019-03-01T17:48:30.986Z,998.61
2019-03-01T17:58:31.086Z,998.70
2019-03-01T18:08:30.992Z,998.81
2019-03-01T18:18:32.522Z,998.92
2019-03-01T18:28:31.357Z,998.93
2019-03-01T18:38:31.562Z,999.06
2019-03-01T18:48:30.994Z,999.11
2019-03-01T18:58:30.940Z,999.17
2019-03-01T19:08:30.977Z,999.16
2019-03-01T19:18:31.217Z,999.11
2019-03-01T19:28:32.462Z,999.04
2019-03-01T19:38:30.970Z,999.05
2019-03-01T19:48:34.489Z,998.99
2019-03-01T19:58:30.978Z,999.04
2019-03-01T20:08:30.947Z,999.12
2019-03-01T20:18:30.948Z,999.07
2019-03-01T20:28:32.173Z,999.01
2019-03-01T20:38:30.936Z,999.00
2019-03-01T20:48:32.253Z,999.09
2019-03-01T20:58:30.929Z,999.06
2019-03-01T21:08:30.889Z,999.05
2019-03-01T21:18:34.043Z,999.04
2019-03-01T21:28:33.672Z,999.02
2019-03-01T21:38:31.000Z,998.91
2019-03-01T21:48:30.836Z,998.98
2019-03-01T21:58:30.942Z,999.00
2019-03-01T22:08:30.920Z,999.10
2019-03-01T22:18:30.912Z,999.09
2019-03-01T22:28:32.716Z,999.05
2019-03-01T22:38:30.904Z,999.15
2019-03-01T22:48:30.871Z,999.02
2019-03-01T22:58:32.712Z,998.90
2019-03-01T23:08:31.773Z,998.90
2019-03-01T23:18:31.079Z,998.85
2019-03-01T23:28:30.923Z,998.75
2019-03-01T23:38:32.564Z,998.65
2019-03-01T23:48:30.971Z,998.64
2019-03-01T23:58:30.919Z,998.65
